sensor_id;sensor_type;location;lat;lon;timestamp;pressure;altitude;pressure_sealevel;temperature;humidity
41078;BME280;26823;42.662;23.352;2023-03-19T00:01:20;95305.38;;;1.05;73.71
41078;BME280;26823;42.662;23.352;2023-03-19T00:03:46;95310.50;;;1.07;73.86
41078;BME280;26823;42.662;23.352;2023-03-19T00:06:12;95304.13;;;1.01;73.98
41078;BME280;26823;42.662;23.352;2023-03-19T00:08:37;95290.41;;;0.91;74.28
41078;BME280;26823;42.662;23.352;2023-03-19T00:11:07;95305.81;;;0.89;74.14
41078;BME280;26823;42.662;23.352;2023-03-19T00:13:33;95292.28;;;0.70;74.76
41078;BME280;26823;42.662;23.352;2023-03-19T00:15:59;95280.59;;;0.64;74.78
41078;BME280;26823;42.662;23.352;2023-03-19T00:18:24;95304.34;;;0.73;74.51
41078;BME280;26823;42.662;23.352;2023-03-19T00:20:50;95285.31;;;0.62;74.82
41078;BME280;26823;42.662;23.352;2023-03-19T00:23:15;95291.22;;;0.64;75.57
41078;BME280;26823;42.662;23.352;2023-03-19T00:25:41;95294.53;;;0.60;76.12
41078;BME280;26823;42.662;23.352;2023-03-19T00:28:06;95296.38;;;0.73;75.83
41078;BME280;26823;42.662;23.352;2023-03-19T00:30:32;95296.16;;;0.81;75.99
41078;BME280;26823;42.662;23.352;2023-03-19T00:32:58;95288.78;;;0.76;75.78
41078;BME280;26823;42.662;23.352;2023-03-19T00:35:23;95284.06;;;0.78;75.51
41078;BME280;26823;42.662;23.352;2023-03-19T00:37:48;95285.50;;;0.74;75.92
41078;BME280;26823;42.662;23.352;2023-03-19T00:40:14;95273.84;;;0.55;76.79
41078;BME280;26823;42.662;23.352;2023-03-19T00:42:39;95216.50;;;0.19;76.76
41078;BME280;26823;42.662;23.352;2023-03-19T00:45:06;95279.38;;;0.54;77.05
41078;BME280;26823;42.662;23.352;2023-03-19T00:47:32;95268.69;;;0.40;77.67
41078;BME280;26823;42.662;23.352;2023-03-19T00:49:57;95266.88;;;0.47;77.09
41078;BME280;26823;42.662;23.352;2023-03-19T00:52:23;95261.94;;;0.24;77.72
41078;BME280;26823;42.662;23.352;2023-03-19T00:54:48;95262.72;;;0.11;78.82
41078;BME280;26823;42.662;23.352;2023-03-19T00:57:14;95270.13;;;0.36;79.08
41078;BME280;26823;42.662;23.352;2023-03-19T00:59:47;95267.88;;;0.46;77.77
41078;BME280;26823;42.662;23.352;2023-03-19T01:02:12;95261.94;;;0.38;77.61
41078;BME280;26823;42.662;23.352;2023-03-19T01:04:38;95258.28;;;0.32;77.82
41078;BME280;26823;42.662;23.352;2023-03-19T01:07:03;95265.84;;;0.48;77.68
41078;BME280;26823;42.662;23.352;2023-03-19T01:09:29;95260.31;;;0.57;77.73
41078;BME280;26823;42.662;23.352;2023-03-19T01:11:55;95249.88;;;0.48;78.37
41078;BME280;26823;42.662;23.352;2023-03-19T01:14:20;95254.81;;;0.58;78.83
41078;BME280;26823;42.662;23.352;2023-03-19T01:16:46;95244.13;;;0.52;77.87
41078;BME280;26823;42.662;23.352;2023-03-19T01:19:12;95242.50;;;0.30;77.73
41078;BME280;26823;42.662;23.352;2023-03-19T01:21:38;95227.16;;;0.19;77.88
41078;BME280;26823;42.662;23.352;2023-03-19T01:24:04;95254.16;;;0.23;79.13
41078;BME280;26823;42.662;23.352;2023-03-19T01:26:29;95258.28;;;0.32;79.34
41078;BME280;26823;42.662;23.352;2023-03-19T01:28:56;95257.84;;;0.42;78.52
41078;BME280;26823;42.662;23.352;2023-03-19T01:31:22;95252.72;;;0.40;77.15
41078;BME280;26823;42.662;23.352;2023-03-19T01:33:47;95256.81;;;0.43;77.97
41078;BME280;26823;42.662;23.352;2023-03-19T01:36:13;95244.97;;;0.52;77.49
41078;BME280;26823;42.662;23.352;2023-03-19T01:38:39;95247.63;;;0.59;76.92
41078;BME280;26823;42.662;23.352;2023-03-19T01:41:18;95206.84;;;-0.09;78.56
41078;BME280;26823;42.662;23.352;2023-03-19T01:43:44;95250.06;;;0.20;79.37
41078;BME280;26823;42.662;23.352;2023-03-19T01:46:35;95255.81;;;0.37;78.02
41078;BME280;26823;42.662;23.352;2023-03-19T01:49:04;95256.63;;;0.31;78.42
41078;BME280;26823;42.662;23.352;2023-03-19T01:51:38;95243.13;;;0.26;78.12
41078;BME280;26823;42.662;23.352;2023-03-19T01:54:12;95248.81;;;0.09;78.21
41078;BME280;26823;42.662;23.352;2023-03-19T01:56:39;95249.63;;;0.03;78.56
41078;BME280;26823;42.662;23.352;2023-03-19T01:59:10;95234.25;;;-0.08;78.54
41078;BME280;26823;42.662;23.352;2023-03-19T02:01:49;95246.97;;;-0.04;78.39
41078;BME280;26823;42.662;23.352;2023-03-19T02:04:18;95257.59;;;-0.04;79.16
41078;BME280;26823;42.662;23.352;2023-03-19T02:06:43;95235.44;;;-0.24;79.35
41078;BME280;26823;42.662;23.352;2023-03-19T02:09:09;95243.44;;;-0.18;79.33
41078;BME280;26823;42.662;23.352;2023-03-19T02:11:36;95256.97;;;0.01;78.86
41078;BME280;26823;42.662;23.352;2023-03-19T02:14:01;95264.41;;;0.32;79.11
41078;BME280;26823;42.662;23.352;2023-03-19T02:16:27;95259.69;;;0.14;78.34
41078;BME280;26823;42.662;23.352;2023-03-19T02:18:52;95263.72;;;0.04;79.36
41078;BME280;26823;42.662;23.352;2023-03-19T02:21:19;95258.03;;;0.00;79.55
41078;BME280;26823;42.662;23.352;2023-03-19T02:26:27;95256.19;;;0.14;79.00
41078;BME280;26823;42.662;23.352;2023-03-19T02:28:54;95265.38;;;0.11;79.55
41078;BME280;26823;42.662;23.352;2023-03-19T02:31:19;95263.13;;;0.08;79.27
41078;BME280;26823;42.662;23.352;2023-03-19T02:34:02;95258.41;;;0.04;79.70
41078;BME280;26823;42.662;23.352;2023-03-19T02:36:43;95262.44;;;-0.21;79.67
41078;BME280;26823;42.662;23.352;2023-03-19T02:39:28;95267.19;;;-0.03;81.11
41078;BME280;26823;42.662;23.352;2023-03-19T02:41:57;95270.69;;;-0.02;80.25
41078;BME280;26823;42.662;23.352;2023-03-19T02:44:23;95257.16;;;-0.14;80.08
41078;BME280;26823;42.662;23.352;2023-03-19T02:46:48;95262.09;;;-0.04;79.92
41078;BME280;26823;42.662;23.352;2023-03-19T02:49:14;95268.03;;;-0.02;79.36
41078;BME280;26823;42.662;23.352;2023-03-19T02:51:39;95272.91;;;-0.12;79.89
41078;BME280;26823;42.662;23.352;2023-03-19T02:54:06;95247.06;;;-0.32;80.70
41078;BME280;26823;42.662;23.352;2023-03-19T02:56:31;95266.31;;;-0.23;79.98
41078;BME280;26823;42.662;23.352;2023-03-19T02:58:57;95265.44;;;-0.44;81.29
41078;BME280;26823;42.662;23.352;2023-03-19T03:01:22;95245.53;;;-0.61;81.79
41078;BME280;26823;42.662;23.352;2023-03-19T03:03:48;95258.25;;;-0.50;82.03
41078;BME280;26823;42.662;23.352;2023-03-19T03:06:14;95252.69;;;-0.62;82.47
41078;BME280;26823;42.662;23.352;2023-03-19T03:08:40;95273.56;;;-0.52;82.39
41078;BME280;26823;42.662;23.352;2023-03-19T03:11:05;95230.38;;;-0.68;82.03
41078;BME280;26823;42.662;23.352;2023-03-19T03:13:31;95272.41;;;-0.36;82.74
41078;BME280;26823;42.662;23.352;2023-03-19T03:15:57;95262.22;;;-0.32;81.22
41078;BME280;26823;42.662;23.352;2023-03-19T03:18:23;95284.34;;;-0.19;81.18
41078;BME280;26823;42.662;23.352;2023-03-19T03:20:48;95269.34;;;-0.40;81.33
41078;BME280;26823;42.662;23.352;2023-03-19T03:23:14;95267.75;;;-0.34;81.41
41078;BME280;26823;42.662;23.352;2023-03-19T03:25:39;95292.09;;;-0.24;80.67
41078;BME280;26823;42.662;23.352;2023-03-19T03:28:05;95294.13;;;-0.32;80.78
41078;BME280;26823;42.662;23.352;2023-03-19T03:30:31;95257.84;;;-0.54;81.23
41078;BME280;26823;42.662;23.352;2023-03-19T03:32:56;95283.47;;;-0.39;81.40
41078;BME280;26823;42.662;23.352;2023-03-19T03:35:22;95280.53;;;-0.51;81.93
41078;BME280;26823;42.662;23.352;2023-03-19T03:37:48;95289.94;;;-0.48;82.36
41078;BME280;26823;42.662;23.352;2023-03-19T03:40:14;95290.81;;;-0.35;82.45
41078;BME280;26823;42.662;23.352;2023-03-19T03:42:41;95293.34;;;-0.20;82.19
41078;BME280;26823;42.662;23.352;2023-03-19T03:45:07;95284.34;;;-0.19;81.38
41078;BME280;26823;42.662;23.352;2023-03-19T03:47:34;95283.91;;;-0.29;80.75
41078;BME280;26823;42.662;23.352;2023-03-19T03:50:00;95306.47;;;-0.11;80.01
41078;BME280;26823;42.662;23.352;2023-03-19T03:52:26;95306.84;;;-0.21;80.72
41078;BME280;26823;42.662;23.352;2023-03-19T03:54:56;95294.47;;;-0.42;81.28
41078;BME280;26823;42.662;23.352;2023-03-19T03:57:23;95309.56;;;-0.50;81.08
41078;BME280;26823;42.662;23.352;2023-03-19T03:59:48;95309.09;;;-0.60;81.97
41078;BME280;26823;42.662;23.352;2023-03-19T04:02:14;95297.66;;;-0.67;82.27
41078;BME280;26823;42.662;23.352;2023-03-19T04:04:39;95302.63;;;-0.51;82.24
41078;BME280;26823;42.662;23.352;2023-03-19T04:07:06;95301.56;;;-0.56;81.84
41078;BME280;26823;42.662;23.352;2023-03-19T04:09:31;95309.53;;;-0.56;81.98
41078;BME280;26823;42.662;23.352;2023-03-19T04:11:57;95285.97;;;-0.66;82.03
41078;BME280;26823;42.662;23.352;2023-03-19T04:14:22;95273.09;;;-0.69;81.98
41078;BME280;26823;42.662;23.352;2023-03-19T04:16:48;95290.47;;;-0.67;82.26
41078;BME280;26823;42.662;23.352;2023-03-19T04:19:13;95287.94;;;-0.46;82.46
41078;BME280;26823;42.662;23.352;2023-03-19T04:21:39;95299.34;;;-0.53;81.31
41078;BME280;26823;42.662;23.352;2023-03-19T04:24:05;95289.34;;;-0.51;81.07
41078;BME280;26823;42.662;23.352;2023-03-19T04:26:31;95304.25;;;-0.50;82.44
41078;BME280;26823;42.662;23.352;2023-03-19T04:28:57;95304.66;;;-0.53;81.40
41078;BME280;26823;42.662;23.352;2023-03-19T04:31:23;95303.03;;;-0.47;80.76
41078;BME280;26823;42.662;23.352;2023-03-19T04:33:48;95304.25;;;-0.50;81.62
41078;BME280;26823;42.662;23.352;2023-03-19T04:36:14;95297.47;;;-0.59;81.46
41078;BME280;26823;42.662;23.352;2023-03-19T04:38:39;95311.41;;;-0.50;81.80
41078;BME280;26823;42.662;23.352;2023-03-19T04:41:04;95304.31;;;-0.36;81.19
41078;BME280;26823;42.662;23.352;2023-03-19T04:43:30;95312.09;;;-0.35;80.53
41078;BME280;26823;42.662;23.352;2023-03-19T04:45:55;95308.63;;;-0.35;80.61
41078;BME280;26823;42.662;23.352;2023-03-19T04:48:21;95306.31;;;-0.52;81.84
41078;BME280;26823;42.662;23.352;2023-03-19T04:50:46;95293.00;;;-0.52;80.66
41078;BME280;26823;42.662;23.352;2023-03-19T04:53:15;95307.13;;;-0.51;81.75
41078;BME280;26823;42.662;23.352;2023-03-19T04:55:41;95305.06;;;-0.56;81.47
41078;BME280;26823;42.662;23.352;2023-03-19T04:58:07;95311.00;;;-0.47;81.08
41078;BME280;26823;42.662;23.352;2023-03-19T05:00:33;95307.63;;;-0.34;80.61
41078;BME280;26823;42.662;23.352;2023-03-19T05:02:59;95288.59;;;-0.24;80.14
41078;BME280;26823;42.662;23.352;2023-03-19T05:05:24;95300.72;;;-0.15;79.77
41078;BME280;26823;42.662;23.352;2023-03-19T05:07:50;95266.91;;;-0.35;80.13
41078;BME280;26823;42.662;23.352;2023-03-19T05:10:15;95309.72;;;-0.16;81.10
41078;BME280;26823;42.662;23.352;2023-03-19T05:12:41;95304.63;;;-0.11;80.04
41078;BME280;26823;42.662;23.352;2023-03-19T05:15:07;95300.94;;;-0.10;80.59
41078;BME280;26823;42.662;23.352;2023-03-19T05:17:33;95310.16;;;0.01;80.11
41078;BME280;26823;42.662;23.352;2023-03-19T05:20:00;95311.44;;;0.19;78.57
41078;BME280;26823;42.662;23.352;2023-03-19T05:22:25;95310.81;;;0.10;78.69
41078;BME280;26823;42.662;23.352;2023-03-19T05:24:51;95268.53;;;-0.34;76.81
41078;BME280;26823;42.662;23.352;2023-03-19T05:27:17;95303.25;;;0.00;75.32
41078;BME280;26823;42.662;23.352;2023-03-19T05:29:42;95295.06;;;0.08;77.17
41078;BME280;26823;42.662;23.352;2023-03-19T05:32:08;95311.50;;;0.32;76.62
41078;BME280;26823;42.662;23.352;2023-03-19T05:34:34;95307.94;;;0.11;74.12
41078;BME280;26823;42.662;23.352;2023-03-19T05:37:00;95301.22;;;0.29;73.58
41078;BME280;26823;42.662;23.352;2023-03-19T05:39:25;95308.41;;;0.28;73.37
41078;BME280;26823;42.662;23.352;2023-03-19T05:41:57;95312.47;;;0.18;73.15
41078;BME280;26823;42.662;23.352;2023-03-19T05:44:22;95319.84;;;0.29;73.56
41078;BME280;26823;42.662;23.352;2023-03-19T05:46:48;95321.94;;;0.34;74.18
41078;BME280;26823;42.662;23.352;2023-03-19T05:49:13;95309.66;;;0.53;72.64
41078;BME280;26823;42.662;23.352;2023-03-19T05:51:38;95305.97;;;0.87;72.68
41078;BME280;26823;42.662;23.352;2023-03-19T05:54:04;95315.88;;;2.24;68.03
41078;BME280;26823;42.662;23.352;2023-03-19T05:56:30;95283.53;;;2.65;64.04
41078;BME280;26823;42.662;23.352;2023-03-19T05:58:55;95331.63;;;3.40;62.52
41078;BME280;26823;42.662;23.352;2023-03-19T06:01:21;95316.72;;;3.88;59.65
41078;BME280;26823;42.662;23.352;2023-03-19T06:03:47;95285.25;;;3.84;58.32
41078;BME280;26823;42.662;23.352;2023-03-19T06:06:13;95325.19;;;4.34;57.69
41078;BME280;26823;42.662;23.352;2023-03-19T06:08:38;95308.81;;;4.12;57.58
41078;BME280;26823;42.662;23.352;2023-03-19T06:11:04;95322.59;;;3.16;61.38
41078;BME280;26823;42.662;23.352;2023-03-19T06:13:29;95315.50;;;3.03;62.60
41078;BME280;26823;42.662;23.352;2023-03-19T06:15:55;95315.72;;;4.01;59.83
41078;BME280;26823;42.662;23.352;2023-03-19T06:18:21;95315.34;;;3.98;58.46
41078;BME280;26823;42.662;23.352;2023-03-19T06:20:46;95316.50;;;4.39;57.30
41078;BME280;26823;42.662;23.352;2023-03-19T06:23:12;95331.84;;;5.52;54.69
41078;BME280;26823;42.662;23.352;2023-03-19T06:25:38;95329.59;;;6.37;51.48
41078;BME280;26823;42.662;23.352;2023-03-19T06:28:04;95330.88;;;7.43;48.72
41078;BME280;26823;42.662;23.352;2023-03-19T06:30:30;95337.00;;;7.56;46.49
41078;BME280;26823;42.662;23.352;2023-03-19T06:32:56;95336.56;;;7.81;46.41
41078;BME280;26823;42.662;23.352;2023-03-19T06:35:22;95335.72;;;8.64;43.17
41078;BME280;26823;42.662;23.352;2023-03-19T06:37:47;95343.81;;;8.20;44.18
41078;BME280;26823;42.662;23.352;2023-03-19T06:40:13;95345.31;;;8.32;43.43
41078;BME280;26823;42.662;23.352;2023-03-19T06:42:39;95344.00;;;8.57;42.97
41078;BME280;26823;42.662;23.352;2023-03-19T06:45:05;95341.13;;;8.91;42.65
41078;BME280;26823;42.662;23.352;2023-03-19T06:47:31;95346.66;;;9.07;40.90
41078;BME280;26823;42.662;23.352;2023-03-19T06:49:57;95342.53;;;8.99;41.69
41078;BME280;26823;42.662;23.352;2023-03-19T06:52:24;95352.78;;;9.62;40.32
41078;BME280;26823;42.662;23.352;2023-03-19T06:54:49;95339.06;;;8.49;41.88
41078;BME280;26823;42.662;23.352;2023-03-19T06:57:15;95328.09;;;8.33;43.17
41078;BME280;26823;42.662;23.352;2023-03-19T06:59:40;95343.06;;;8.96;41.76
41078;BME280;26823;42.662;23.352;2023-03-19T07:02:09;95358.28;;;9.77;40.52
41078;BME280;26823;42.662;23.352;2023-03-19T07:04:35;95353.41;;;10.86;37.12
41078;BME280;26823;42.662;23.352;2023-03-19T07:07:00;95349.63;;;10.92;37.75
41078;BME280;26823;42.662;23.352;2023-03-19T07:09:26;95358.06;;;11.01;36.92
41078;BME280;26823;42.662;23.352;2023-03-19T07:11:52;95354.56;;;11.67;36.43
41078;BME280;26823;42.662;23.352;2023-03-19T07:14:17;95346.06;;;13.31;34.11
41078;BME280;26823;42.662;23.352;2023-03-19T07:16:43;95352.03;;;14.02;31.50
41078;BME280;26823;42.662;23.352;2023-03-19T07:19:08;95359.03;;;12.49;33.34
41078;BME280;26823;42.662;23.352;2023-03-19T07:21:33;95327.16;;;12.00;34.21
41078;BME280;26823;42.662;23.352;2023-03-19T07:24:00;95355.28;;;13.35;32.63
41078;BME280;26823;42.662;23.352;2023-03-19T07:26:25;95350.22;;;12.78;33.25
41078;BME280;26823;42.662;23.352;2023-03-19T07:28:51;95347.78;;;14.44;30.84
41078;BME280;26823;42.662;23.352;2023-03-19T07:31:17;95353.78;;;15.47;29.53
41078;BME280;26823;42.662;23.352;2023-03-19T07:33:42;95357.56;;;16.31;28.42
41078;BME280;26823;42.662;23.352;2023-03-19T07:36:08;95342.38;;;16.11;27.69
41078;BME280;26823;42.662;23.352;2023-03-19T07:38:34;95352.97;;;16.12;28.21
41078;BME280;26823;42.662;23.352;2023-03-19T07:40:59;95331.78;;;14.62;29.45
41078;BME280;26823;42.662;23.352;2023-03-19T07:43:25;95334.19;;;14.68;29.83
41078;BME280;26823;42.662;23.352;2023-03-19T07:45:50;95332.31;;;14.15;30.34
41078;BME280;26823;42.662;23.352;2023-03-19T07:48:15;95347.16;;;13.30;31.49
41078;BME280;26823;42.662;23.352;2023-03-19T07:50:41;95343.25;;;12.62;32.38
41078;BME280;26823;42.662;23.352;2023-03-19T07:53:07;95351.31;;;13.62;30.91
41078;BME280;26823;42.662;23.352;2023-03-19T07:55:32;95351.00;;;13.24;31.35
41078;BME280;26823;42.662;23.352;2023-03-19T07:57:58;95341.88;;;14.37;29.87
41078;BME280;26823;42.662;23.352;2023-03-19T08:00:24;95353.34;;;14.58;29.38
41078;BME280;26823;42.662;23.352;2023-03-19T08:02:49;95347.38;;;14.08;29.80
41078;BME280;26823;42.662;23.352;2023-03-19T08:05:15;95340.66;;;14.48;29.95
41078;BME280;26823;42.662;23.352;2023-03-19T08:07:41;95350.63;;;15.92;28.65
41078;BME280;26823;42.662;23.352;2023-03-19T08:10:06;95349.81;;;16.66;26.85
41078;BME280;26823;42.662;23.352;2023-03-19T08:12:33;95350.06;;;16.09;27.56
41078;BME280;26823;42.662;23.352;2023-03-19T08:15:04;95343.25;;;15.02;28.52
41078;BME280;26823;42.662;23.352;2023-03-19T08:17:30;95342.28;;;13.96;30.97
41078;BME280;26823;42.662;23.352;2023-03-19T08:19:58;95325.72;;;14.22;30.27
41078;BME280;26823;42.662;23.352;2023-03-19T08:22:23;95346.28;;;15.91;28.35
41078;BME280;26823;42.662;23.352;2023-03-19T08:24:49;95339.06;;;16.28;27.39
41078;BME280;26823;42.662;23.352;2023-03-19T08:27:14;95335.50;;;15.47;27.88
41078;BME280;26823;42.662;23.352;2023-03-19T08:29:40;95344.00;;;15.27;28.79
41078;BME280;26823;42.662;23.352;2023-03-19T08:32:05;95340.69;;;15.11;27.70
41078;BME280;26823;42.662;23.352;2023-03-19T08:34:32;95346.66;;;14.94;29.09
41078;BME280;26823;42.662;23.352;2023-03-19T08:36:57;95339.78;;;14.53;29.42
41078;BME280;26823;42.662;23.352;2023-03-19T08:39:23;95328.97;;;14.48;29.28
41078;BME280;26823;42.662;23.352;2023-03-19T08:41:48;95325.50;;;16.09;27.15
41078;BME280;26823;42.662;23.352;2023-03-19T08:44:13;95338.75;;;16.85;26.83
41078;BME280;26823;42.662;23.352;2023-03-19T08:46:39;95331.97;;;16.13;27.37
41078;BME280;26823;42.662;23.352;2023-03-19T08:49:06;95329.44;;;16.03;27.10
41078;BME280;26823;42.662;23.352;2023-03-19T08:51:32;95321.28;;;16.30;27.34
41078;BME280;26823;42.662;23.352;2023-03-19T08:53:57;95315.38;;;14.91;28.65
41078;BME280;26823;42.662;23.352;2023-03-19T08:56:22;95303.16;;;14.45;29.28
41078;BME280;26823;42.662;23.352;2023-03-19T08:58:48;95290.88;;;14.48;28.37
41078;BME280;26823;42.662;23.352;2023-03-19T09:01:14;95306.16;;;15.25;28.27
41078;BME280;26823;42.662;23.352;2023-03-19T09:03:41;95298.78;;;15.59;26.82
41078;BME280;26823;42.662;23.352;2023-03-19T09:06:08;95288.84;;;16.57;28.07
41078;BME280;26823;42.662;23.352;2023-03-19T09:08:35;95303.16;;;17.27;27.36
41078;BME280;26823;42.662;23.352;2023-03-19T09:11:01;95299.91;;;17.25;25.32
41078;BME280;26823;42.662;23.352;2023-03-19T09:13:27;95263.13;;;16.58;26.56
41078;BME280;26823;42.662;23.352;2023-03-19T09:15:52;95294.69;;;15.09;28.25
41078;BME280;26823;42.662;23.352;2023-03-19T09:18:18;95281.06;;;15.09;31.59
41078;BME280;26823;42.662;23.352;2023-03-19T09:20:45;95285.63;;;14.76;28.44
41078;BME280;26823;42.662;23.352;2023-03-19T09:23:11;95271.75;;;14.53;29.93
41078;BME280;26823;42.662;23.352;2023-03-19T09:25:36;95279.13;;;14.28;28.20
41078;BME280;26823;42.662;23.352;2023-03-19T09:28:01;95297.25;;;14.38;28.31
41078;BME280;26823;42.662;23.352;2023-03-19T09:30:27;95283.28;;;15.40;27.80
41078;BME280;26823;42.662;23.352;2023-03-19T09:32:53;95283.56;;;15.06;27.44
41078;BME280;26823;42.662;23.352;2023-03-19T09:35:18;95291.34;;;15.12;29.50
41078;BME280;26823;42.662;23.352;2023-03-19T09:37:44;95284.75;;;15.98;27.92
41078;BME280;26823;42.662;23.352;2023-03-19T09:40:24;95287.13;;;16.19;28.33
41078;BME280;26823;42.662;23.352;2023-03-19T09:45:41;95287.44;;;16.18;26.35
41078;BME280;26823;42.662;23.352;2023-03-19T09:48:12;95278.13;;;15.72;27.32
41078;BME280;26823;42.662;23.352;2023-03-19T09:50:39;95279.94;;;16.23;27.42
41078;BME280;26823;42.662;23.352;2023-03-19T09:53:39;95264.56;;;16.27;27.30
41078;BME280;26823;42.662;23.352;2023-03-19T09:56:12;95272.28;;;15.78;32.93
41078;BME280;26823;42.662;23.352;2023-03-19T09:58:39;95274.34;;;16.56;30.91
41078;BME280;26823;42.662;23.352;2023-03-19T10:01:05;95271.91;;;16.69;26.99
41078;BME280;26823;42.662;23.352;2023-03-19T10:06:32;95265.66;;;16.40;25.40
41078;BME280;26823;42.662;23.352;2023-03-19T10:15:24;95258.94;;;16.74;26.73
41078;BME280;26823;42.662;23.352;2023-03-19T10:18:11;95256.56;;;17.32;27.65
41078;BME280;26823;42.662;23.352;2023-03-19T10:26:23;95237.53;;;18.62;37.15
41078;BME280;26823;42.662;23.352;2023-03-19T10:29:17;95232.03;;;18.53;23.90
41078;BME280;26823;42.662;23.352;2023-03-19T10:34:48;95215.34;;;18.14;25.53
41078;BME280;26823;42.662;23.352;2023-03-19T10:37:17;95215.81;;;18.16;24.80
41078;BME280;26823;42.662;23.352;2023-03-19T10:39:47;95213.22;;;18.86;24.45
41078;BME280;26823;42.662;23.352;2023-03-19T10:47:46;95200.50;;;15.83;26.31
41078;BME280;26823;42.662;23.352;2023-03-19T10:50:17;95179.22;;;16.50;29.50
41078;BME280;26823;42.662;23.352;2023-03-19T10:52:44;95185.91;;;15.46;26.30
41078;BME280;26823;42.662;23.352;2023-03-19T10:55:18;95168.22;;;15.29;27.67
41078;BME280;26823;42.662;23.352;2023-03-19T10:57:49;95178.75;;;16.70;27.16
41078;BME280;26823;42.662;23.352;2023-03-19T11:00:21;95174.59;;;16.73;25.98
41078;BME280;26823;42.662;23.352;2023-03-19T11:02:50;95171.50;;;16.29;25.68
41078;BME280;26823;42.662;23.352;2023-03-19T11:05:27;95167.84;;;15.03;27.33
41078;BME280;26823;42.662;23.352;2023-03-19T11:08:02;95160.03;;;17.54;27.77
41078;BME280;26823;42.662;23.352;2023-03-19T11:10:31;95157.91;;;18.49;24.01
41078;BME280;26823;42.662;23.352;2023-03-19T11:13:02;95159.97;;;19.40;24.51
41078;BME280;26823;42.662;23.352;2023-03-19T11:15:37;95145.25;;;19.62;23.86
41078;BME280;26823;42.662;23.352;2023-03-19T11:18:23;95137.78;;;18.80;23.42
41078;BME280;26823;42.662;23.352;2023-03-19T11:20:57;95140.06;;;19.61;23.60
41078;BME280;26823;42.662;23.352;2023-03-19T11:23:27;95141.19;;;20.79;23.92
41078;BME280;26823;42.662;23.352;2023-03-19T11:25:54;95137.72;;;21.25;24.39
41078;BME280;26823;42.662;23.352;2023-03-19T11:28:24;95131.22;;;21.42;26.69
41078;BME280;26823;42.662;23.352;2023-03-19T11:47:14;95094.44;;;18.21;24.60
41078;BME280;26823;42.662;23.352;2023-03-19T11:52:34;95085.72;;;16.07;25.57
41078;BME280;26823;42.662;23.352;2023-03-19T11:55:15;95086.03;;;15.78;26.39
41078;BME280;26823;42.662;23.352;2023-03-19T12:00:17;95076.03;;;16.01;27.71
41078;BME280;26823;42.662;23.352;2023-03-19T12:05:32;95082.03;;;18.67;23.89
41078;BME280;26823;42.662;23.352;2023-03-19T12:11:27;95072.28;;;17.73;24.39
41078;BME280;26823;42.662;23.352;2023-03-19T12:17:12;95061.44;;;16.65;26.42
41078;BME280;26823;42.662;23.352;2023-03-19T12:19:31;95053.38;;;16.83;26.09
41078;BME280;26823;42.662;23.352;2023-03-19T12:33:51;95051.38;;;17.28;26.75
41078;BME280;26823;42.662;23.352;2023-03-19T12:39:31;95010.75;;;17.44;25.31
41078;BME280;26823;42.662;23.352;2023-03-19T12:41:59;95026.31;;;18.11;25.19
41078;BME280;26823;42.662;23.352;2023-03-19T12:44:31;95034.34;;;17.98;25.50
41078;BME280;26823;42.662;23.352;2023-03-19T12:47:14;95027.09;;;17.85;24.96
41078;BME280;26823;42.662;23.352;2023-03-19T12:49:59;95036.88;;;17.86;26.31
41078;BME280;26823;42.662;23.352;2023-03-19T12:52:37;95043.38;;;18.42;24.77
41078;BME280;26823;42.662;23.352;2023-03-19T12:55:26;95033.28;;;16.78;26.88
41078;BME280;26823;42.662;23.352;2023-03-19T13:00:55;95017.19;;;19.06;28.10
41078;BME280;26823;42.662;23.352;2023-03-19T13:03:36;95024.88;;;18.39;27.51
41078;BME280;26823;42.662;23.352;2023-03-19T13:06:07;95020.97;;;17.30;27.16
41078;BME280;26823;42.662;23.352;2023-03-19T13:08:44;95007.94;;;17.85;27.22
41078;BME280;26823;42.662;23.352;2023-03-19T13:11:15;95011.69;;;18.15;25.17
41078;BME280;26823;42.662;23.352;2023-03-19T13:18:57;95007.81;;;19.07;26.74
41078;BME280;26823;42.662;23.352;2023-03-19T13:21:32;95003.75;;;18.40;25.45
41078;BME280;26823;42.662;23.352;2023-03-19T13:26:30;94983.97;;;16.52;27.41
41078;BME280;26823;42.662;23.352;2023-03-19T13:29:17;94985.19;;;16.46;27.69
41078;BME280;26823;42.662;23.352;2023-03-19T13:31:44;94989.44;;;16.29;27.25
41078;BME280;26823;42.662;23.352;2023-03-19T13:36:43;94981.91;;;16.12;28.14
41078;BME280;26823;42.662;23.352;2023-03-19T13:39:18;94974.25;;;16.69;28.41
41078;BME280;26823;42.662;23.352;2023-03-19T13:41:50;94980.78;;;16.59;27.99
41078;BME280;26823;42.662;23.352;2023-03-19T13:46:55;94977.09;;;17.35;27.89
41078;BME280;26823;42.662;23.352;2023-03-19T13:49:24;94979.94;;;16.81;27.64
41078;BME280;26823;42.662;23.352;2023-03-19T13:51:53;94967.78;;;16.33;28.06
41078;BME280;26823;42.662;23.352;2023-03-19T13:54:31;94962.41;;;17.14;27.95
41078;BME280;26823;42.662;23.352;2023-03-19T13:59:31;94972.94;;;16.12;28.69
41078;BME280;26823;42.662;23.352;2023-03-19T14:04:50;94954.56;;;15.16;29.46
41078;BME280;26823;42.662;23.352;2023-03-19T14:07:22;94960.16;;;15.62;35.82
41078;BME280;26823;42.662;23.352;2023-03-19T14:12:34;94963.31;;;15.92;29.69
41078;BME280;26823;42.662;23.352;2023-03-19T14:15:14;94952.22;;;15.74;31.45
41078;BME280;26823;42.662;23.352;2023-03-19T14:25:25;94947.84;;;16.01;29.00
41078;BME280;26823;42.662;23.352;2023-03-19T14:27:57;94943.00;;;16.52;28.33
41078;BME280;26823;42.662;23.352;2023-03-19T14:30:36;94950.28;;;16.57;28.24
41078;BME280;26823;42.662;23.352;2023-03-19T14:33:05;94937.50;;;16.43;27.93
41078;BME280;26823;42.662;23.352;2023-03-19T14:35:38;94927.09;;;16.45;28.22
41078;BME280;26823;42.662;23.352;2023-03-19T14:38:12;94938.56;;;16.65;28.21
41078;BME280;26823;42.662;23.352;2023-03-19T14:40:52;94941.94;;;17.02;28.36
41078;BME280;26823;42.662;23.352;2023-03-19T14:51:12;94941.88;;;16.85;28.19